sensor_id;sensor_type;location;lat;lon;timestamp;temperature;humidity
25718;DHT22;13574;52.040;5.692;2022-10-16T00:01:27;17.10;99.90
25718;DHT22;13574;52.040;5.692;2022-10-16T00:03:55;17.00;99.90
25718;DHT22;13574;52.040;5.692;2022-10-16T00:06:21;17.00;99.90
25718;DHT22;13574;52.040;5.692;2022-10-16T00:08:48;17.00;99.90
25718;DHT22;13574;52.040;5.692;2022-10-16T00:13:47;16.80;99.90
25718;DHT22;13574;52.040;5.692;2022-10-16T00:16:14;16.80;99.90
25718;DHT22;13574;52.040;5.692;2022-10-16T00:18:40;16.80;99.90
25718;DHT22;13574;52.040;5.692;2022-10-16T00:21:15;16.90;99.90
25718;DHT22;13574;52.040;5.692;2022-10-16T00:23:41;16.90;99.90
25718;DHT22;13574;52.040;5.692;2022-10-16T00:26:09;16.90;99.90
25718;DHT22;13574;52.040;5.692;2022-10-16T00:28:36;17.00;99.90
25718;DHT22;13574;52.040;5.692;2022-10-16T00:31:04;17.10;99.90
25718;DHT22;13574;52.040;5.692;2022-10-16T00:33:30;17.00;99.90
25718;DHT22;13574;52.040;5.692;2022-10-16T00:35:58;16.90;99.90
25718;DHT22;13574;52.040;5.692;2022-10-16T00:38:24;16.90;99.90
25718;DHT22;13574;52.040;5.692;2022-10-16T00:40:52;16.90;99.90
25718;DHT22;13574;52.040;5.692;2022-10-16T00:48:52;16.80;99.90
25718;DHT22;13574;52.040;5.692;2022-10-16T00:51:21;16.90;99.90
25718;DHT22;13574;52.040;5.692;2022-10-16T00:53:49;17.00;99.90
25718;DHT22;13574;52.040;5.692;2022-10-16T00:56:15;17.00;99.90
25718;DHT22;13574;52.040;5.692;2022-10-16T00:58:41;17.00;99.90
25718;DHT22;13574;52.040;5.692;2022-10-16T01:01:07;17.00;99.90
25718;DHT22;13574;52.040;5.692;2022-10-16T01:03:34;17.10;99.90
25718;DHT22;13574;52.040;5.692;2022-10-16T01:06:16;17.10;99.90
25718;DHT22;13574;52.040;5.692;2022-10-16T01:13:55;17.00;99.90
25718;DHT22;13574;52.040;5.692;2022-10-16T01:16:31;17.00;99.90
25718;DHT22;13574;52.040;5.692;2022-10-16T01:19:14;17.10;99.90
25718;DHT22;13574;52.040;5.692;2022-10-16T01:21:47;17.10;99.90
25718;DHT22;13574;52.040;5.692;2022-10-16T01:29:44;17.20;99.90
25718;DHT22;13574;52.040;5.692;2022-10-16T01:32:54;17.20;99.90
25718;DHT22;13574;52.040;5.692;2022-10-16T01:35:27;17.20;99.90
25718;DHT22;13574;52.040;5.692;2022-10-16T01:38:07;17.30;99.90
25718;DHT22;13574;52.040;5.692;2022-10-16T01:40:36;17.30;99.90
25718;DHT22;13574;52.040;5.692;2022-10-16T01:43:11;17.30;99.90
25718;DHT22;13574;52.040;5.692;2022-10-16T01:45:38;17.30;99.90
25718;DHT22;13574;52.040;5.692;2022-10-16T01:48:06;17.30;99.90
25718;DHT22;13574;52.040;5.692;2022-10-16T01:50:37;17.40;99.90
25718;DHT22;13574;52.040;5.692;2022-10-16T01:53:07;17.50;99.90
25718;DHT22;13574;52.040;5.692;2022-10-16T01:55:38;17.40;99.90
25718;DHT22;13574;52.040;5.692;2022-10-16T01:58:08;17.50;99.90
25718;DHT22;13574;52.040;5.692;2022-10-16T02:00:37;17.50;99.90
25718;DHT22;13574;52.040;5.692;2022-10-16T02:03:04;17.50;99.90
25718;DHT22;13574;52.040;5.692;2022-10-16T02:08:05;17.60;99.90
25718;DHT22;13574;52.040;5.692;2022-10-16T02:10:32;17.60;99.90
25718;DHT22;13574;52.040;5.692;2022-10-16T02:13:02;17.60;99.90
25718;DHT22;13574;52.040;5.692;2022-10-16T02:15:31;17.40;99.90
25718;DHT22;13574;52.040;5.692;2022-10-16T02:18:15;17.40;99.90
25718;DHT22;13574;52.040;5.692;2022-10-16T02:20:51;17.30;99.90
25718;DHT22;13574;52.040;5.692;2022-10-16T02:23:34;17.20;99.90
25718;DHT22;13574;52.040;5.692;2022-10-16T02:26:07;17.30;99.90
25718;DHT22;13574;52.040;5.692;2022-10-16T02:28:50;17.30;99.90
25718;DHT22;13574;52.040;5.692;2022-10-16T02:31:20;17.10;99.90
25718;DHT22;13574;52.040;5.692;2022-10-16T02:33:50;17.00;99.90
25718;DHT22;13574;52.040;5.692;2022-10-16T02:36:16;17.10;99.90
25718;DHT22;13574;52.040;5.692;2022-10-16T02:38:42;17.00;99.90
25718;DHT22;13574;52.040;5.692;2022-10-16T02:41:11;17.20;99.90
25718;DHT22;13574;52.040;5.692;2022-10-16T02:43:37;17.30;99.90
25718;DHT22;13574;52.040;5.692;2022-10-16T02:46:03;17.30;99.90
25718;DHT22;13574;52.040;5.692;2022-10-16T02:48:28;17.30;99.90
25718;DHT22;13574;52.040;5.692;2022-10-16T02:50:54;17.30;99.90
25718;DHT22;13574;52.040;5.692;2022-10-16T02:53:22;17.20;99.90
25718;DHT22;13574;52.040;5.692;2022-10-16T02:55:48;17.10;99.90
25718;DHT22;13574;52.040;5.692;2022-10-16T02:58:13;17.20;99.90
25718;DHT22;13574;52.040;5.692;2022-10-16T03:00:39;17.20;99.90
25718;DHT22;13574;52.040;5.692;2022-10-16T03:03:07;17.30;99.90
25718;DHT22;13574;52.040;5.692;2022-10-16T03:05:32;17.30;99.90
25718;DHT22;13574;52.040;5.692;2022-10-16T03:08:03;17.50;99.90
25718;DHT22;13574;52.040;5.692;2022-10-16T03:10:28;17.40;99.90
25718;DHT22;13574;52.040;5.692;2022-10-16T03:12:54;17.40;99.90
25718;DHT22;13574;52.040;5.692;2022-10-16T03:15:22;17.60;99.90
25718;DHT22;13574;52.040;5.692;2022-10-16T03:17:48;17.50;99.90
25718;DHT22;13574;52.040;5.692;2022-10-16T03:20:14;17.50;99.90
25718;DHT22;13574;52.040;5.692;2022-10-16T03:22:42;17.40;99.90
25718;DHT22;13574;52.040;5.692;2022-10-16T03:25:08;17.40;99.90
25718;DHT22;13574;52.040;5.692;2022-10-16T03:27:34;17.40;99.90
25718;DHT22;13574;52.040;5.692;2022-10-16T03:30:02;17.50;99.90
25718;DHT22;13574;52.040;5.692;2022-10-16T03:32:28;17.40;99.90
25718;DHT22;13574;52.040;5.692;2022-10-16T03:34:54;17.40;99.90
25718;DHT22;13574;52.040;5.692;2022-10-16T03:37:21;17.50;99.90
25718;DHT22;13574;52.040;5.692;2022-10-16T03:39:47;17.50;99.90
25718;DHT22;13574;52.040;5.692;2022-10-16T03:42:13;17.40;99.90
25718;DHT22;13574;52.040;5.692;2022-10-16T03:44:38;17.40;99.90
25718;DHT22;13574;52.040;5.692;2022-10-16T03:47:04;17.30;99.90
25718;DHT22;13574;52.040;5.692;2022-10-16T03:49:32;17.50;99.90
25718;DHT22;13574;52.040;5.692;2022-10-16T03:51:58;17.40;99.90
25718;DHT22;13574;52.040;5.692;2022-10-16T03:54:23;17.60;99.90
25718;DHT22;13574;52.040;5.692;2022-10-16T03:56:49;17.40;99.90
25718;DHT22;13574;52.040;5.692;2022-10-16T03:59:15;17.40;99.90
25718;DHT22;13574;52.040;5.692;2022-10-16T04:01:43;17.30;99.90
25718;DHT22;13574;52.040;5.692;2022-10-16T04:04:09;17.30;99.90
25718;DHT22;13574;52.040;5.692;2022-10-16T04:06:34;17.30;99.90
25718;DHT22;13574;52.040;5.692;2022-10-16T04:09:00;17.20;99.90
25718;DHT22;13574;52.040;5.692;2022-10-16T04:11:26;17.30;99.90
25718;DHT22;13574;52.040;5.692;2022-10-16T04:13:51;17.30;99.90
25718;DHT22;13574;52.040;5.692;2022-10-16T04:16:17;17.30;99.90
25718;DHT22;13574;52.040;5.692;2022-10-16T04:18:43;17.20;99.90
25718;DHT22;13574;52.040;5.692;2022-10-16T04:21:11;17.20;99.90
25718;DHT22;13574;52.040;5.692;2022-10-16T04:23:36;17.20;99.90
25718;DHT22;13574;52.040;5.692;2022-10-16T04:26:02;17.20;99.90
25718;DHT22;13574;52.040;5.692;2022-10-16T04:28:31;17.30;99.90
25718;DHT22;13574;52.040;5.692;2022-10-16T04:30:57;17.30;99.90
25718;DHT22;13574;52.040;5.692;2022-10-16T04:33:25;17.20;99.90
25718;DHT22;13574;52.040;5.692;2022-10-16T04:35:57;17.30;99.90
25718;DHT22;13574;52.040;5.692;2022-10-16T04:38:24;17.00;99.90
25718;DHT22;13574;52.040;5.692;2022-10-16T04:40:57;17.10;99.90
25718;DHT22;13574;52.040;5.692;2022-10-16T04:43:22;17.00;99.90
25718;DHT22;13574;52.040;5.692;2022-10-16T04:45:48;17.10;99.90
25718;DHT22;13574;52.040;5.692;2022-10-16T04:48:18;17.20;99.90
25718;DHT22;13574;52.040;5.692;2022-10-16T04:50:47;17.10;99.90
25718;DHT22;13574;52.040;5.692;2022-10-16T04:53:13;17.30;99.90
25718;DHT22;13574;52.040;5.692;2022-10-16T04:55:39;17.20;99.90
25718;DHT22;13574;52.040;5.692;2022-10-16T04:58:05;17.30;99.90
25718;DHT22;13574;52.040;5.692;2022-10-16T05:00:31;17.10;99.90
25718;DHT22;13574;52.040;5.692;2022-10-16T05:02:56;17.10;99.90
25718;DHT22;13574;52.040;5.692;2022-10-16T05:05:24;17.20;99.90
25718;DHT22;13574;52.040;5.692;2022-10-16T05:07:51;17.20;99.90
25718;DHT22;13574;52.040;5.692;2022-10-16T05:10:17;17.30;99.90
25718;DHT22;13574;52.040;5.692;2022-10-16T05:12:42;17.20;99.90
25718;DHT22;13574;52.040;5.692;2022-10-16T05:15:09;17.20;99.90
25718;DHT22;13574;52.040;5.692;2022-10-16T05:17:34;17.30;99.90
25718;DHT22;13574;52.040;5.692;2022-10-16T05:20:00;17.20;99.90
25718;DHT22;13574;52.040;5.692;2022-10-16T05:22:26;17.20;99.90
25718;DHT22;13574;52.040;5.692;2022-10-16T05:24:51;17.10;99.90
25718;DHT22;13574;52.040;5.692;2022-10-16T05:27:22;17.10;99.90
25718;DHT22;13574;52.040;5.692;2022-10-16T05:29:48;16.90;99.90
25718;DHT22;13574;52.040;5.692;2022-10-16T05:32:22;16.90;99.90
25718;DHT22;13574;52.040;5.692;2022-10-16T05:34:55;16.90;99.90
25718;DHT22;13574;52.040;5.692;2022-10-16T05:37:25;16.90;99.90
25718;DHT22;13574;52.040;5.692;2022-10-16T05:39:52;16.70;99.90
25718;DHT22;13574;52.040;5.692;2022-10-16T05:42:18;16.70;99.90
25718;DHT22;13574;52.040;5.692;2022-10-16T05:44:44;16.80;99.90
25718;DHT22;13574;52.040;5.692;2022-10-16T05:47:11;16.80;99.90
25718;DHT22;13574;52.040;5.692;2022-10-16T05:49:37;16.90;99.90
25718;DHT22;13574;52.040;5.692;2022-10-16T05:52:10;16.90;99.90
25718;DHT22;13574;52.040;5.692;2022-10-16T05:54:35;16.80;99.90
25718;DHT22;13574;52.040;5.692;2022-10-16T05:57:01;16.80;99.90
25718;DHT22;13574;52.040;5.692;2022-10-16T05:59:27;16.90;99.90
25718;DHT22;13574;52.040;5.692;2022-10-16T06:01:53;16.80;99.90
25718;DHT22;13574;52.040;5.692;2022-10-16T06:04:21;16.90;99.90
25718;DHT22;13574;52.040;5.692;2022-10-16T06:06:46;16.90;99.90
25718;DHT22;13574;52.040;5.692;2022-10-16T06:09:12;17.00;99.90
25718;DHT22;13574;52.040;5.692;2022-10-16T06:11:38;17.10;99.90
25718;DHT22;13574;52.040;5.692;2022-10-16T06:14:03;17.20;99.90
25718;DHT22;13574;52.040;5.692;2022-10-16T06:16:33;17.30;99.90
25718;DHT22;13574;52.040;5.692;2022-10-16T06:19:00;17.10;99.90
25718;DHT22;13574;52.040;5.692;2022-10-16T06:21:26;17.00;99.90
25718;DHT22;13574;52.040;5.692;2022-10-16T06:23:54;16.90;99.90
25718;DHT22;13574;52.040;5.692;2022-10-16T06:26:22;16.90;99.90
25718;DHT22;13574;52.040;5.692;2022-10-16T06:28:48;17.00;99.90
25718;DHT22;13574;52.040;5.692;2022-10-16T06:31:14;17.00;99.90
25718;DHT22;13574;52.040;5.692;2022-10-16T06:33:40;17.10;99.90
25718;DHT22;13574;52.040;5.692;2022-10-16T06:36:12;17.00;99.90
25718;DHT22;13574;52.040;5.692;2022-10-16T06:38:39;16.90;99.90
25718;DHT22;13574;52.040;5.692;2022-10-16T06:41:06;16.90;99.90
25718;DHT22;13574;52.040;5.692;2022-10-16T06:43:33;17.10;99.90
25718;DHT22;13574;52.040;5.692;2022-10-16T06:46:02;17.10;99.90
25718;DHT22;13574;52.040;5.692;2022-10-16T06:48:29;17.10;99.90
25718;DHT22;13574;52.040;5.692;2022-10-16T06:50:59;16.90;99.90
25718;DHT22;13574;52.040;5.692;2022-10-16T06:53:27;17.10;99.90
25718;DHT22;13574;52.040;5.692;2022-10-16T06:55:52;17.20;99.90
25718;DHT22;13574;52.040;5.692;2022-10-16T06:58:18;17.40;99.90
25718;DHT22;13574;52.040;5.692;2022-10-16T07:00:44;17.50;99.90
25718;DHT22;13574;52.040;5.692;2022-10-16T07:03:10;17.40;99.90
25718;DHT22;13574;52.040;5.692;2022-10-16T07:05:42;17.40;99.90
25718;DHT22;13574;52.040;5.692;2022-10-16T07:08:08;17.50;99.90
25718;DHT22;13574;52.040;5.692;2022-10-16T07:10:34;17.60;99.90
25718;DHT22;13574;52.040;5.692;2022-10-16T07:13:00;17.60;99.90
25718;DHT22;13574;52.040;5.692;2022-10-16T07:15:26;17.70;99.90
25718;DHT22;13574;52.040;5.692;2022-10-16T07:17:52;17.80;99.90
25718;DHT22;13574;52.040;5.692;2022-10-16T07:20:19;17.80;99.90
25718;DHT22;13574;52.040;5.692;2022-10-16T07:22:44;17.90;99.90
25718;DHT22;13574;52.040;5.692;2022-10-16T07:25:10;17.90;99.90
25718;DHT22;13574;52.040;5.692;2022-10-16T07:27:36;17.90;99.90
25718;DHT22;13574;52.040;5.692;2022-10-16T07:30:03;18.00;99.90
25718;DHT22;13574;52.040;5.692;2022-10-16T07:32:29;18.10;99.90
25718;DHT22;13574;52.040;5.692;2022-10-16T07:34:54;18.10;99.90
25718;DHT22;13574;52.040;5.692;2022-10-16T07:37:21;18.10;99.90
25718;DHT22;13574;52.040;5.692;2022-10-16T07:39:47;18.00;99.90
25718;DHT22;13574;52.040;5.692;2022-10-16T07:42:12;18.00;99.90
25718;DHT22;13574;52.040;5.692;2022-10-16T07:44:38;18.10;99.90
25718;DHT22;13574;52.040;5.692;2022-10-16T07:47:04;18.30;99.90
25718;DHT22;13574;52.040;5.692;2022-10-16T07:49:29;18.40;99.90
25718;DHT22;13574;52.040;5.692;2022-10-16T07:51:55;18.30;99.90
25718;DHT22;13574;52.040;5.692;2022-10-16T07:54:20;18.30;99.90
25718;DHT22;13574;52.040;5.692;2022-10-16T07:56:46;18.40;99.90
25718;DHT22;13574;52.040;5.692;2022-10-16T07:59:12;18.30;99.90
25718;DHT22;13574;52.040;5.692;2022-10-16T08:01:37;18.30;99.90
25718;DHT22;13574;52.040;5.692;2022-10-16T08:04:03;18.30;99.90
25718;DHT22;13574;52.040;5.692;2022-10-16T08:06:29;18.40;99.90
25718;DHT22;13574;52.040;5.692;2022-10-16T08:08:55;18.40;99.90
25718;DHT22;13574;52.040;5.692;2022-10-16T08:11:21;18.50;99.90
25718;DHT22;13574;52.040;5.692;2022-10-16T08:13:47;18.50;99.90
25718;DHT22;13574;52.040;5.692;2022-10-16T08:16:12;18.70;99.90
25718;DHT22;13574;52.040;5.692;2022-10-16T08:18:39;18.80;99.90
25718;DHT22;13574;52.040;5.692;2022-10-16T08:21:06;18.90;99.90
25718;DHT22;13574;52.040;5.692;2022-10-16T08:23:33;18.80;99.90
25718;DHT22;13574;52.040;5.692;2022-10-16T08:26:06;18.80;99.90
25718;DHT22;13574;52.040;5.692;2022-10-16T08:28:32;18.50;99.90
25718;DHT22;13574;52.040;5.692;2022-10-16T08:33:33;18.60;99.90
25718;DHT22;13574;52.040;5.692;2022-10-16T08:36:00;18.80;99.90
25718;DHT22;13574;52.040;5.692;2022-10-16T08:38:26;18.80;99.90
25718;DHT22;13574;52.040;5.692;2022-10-16T08:40:57;19.00;99.90
25718;DHT22;13574;52.040;5.692;2022-10-16T08:48:54;18.90;99.90
25718;DHT22;13574;52.040;5.692;2022-10-16T08:51:31;18.80;99.90
25718;DHT22;13574;52.040;5.692;2022-10-16T08:56:44;19.00;99.90
25718;DHT22;13574;52.040;5.692;2022-10-16T08:59:20;19.00;99.90
25718;DHT22;13574;52.040;5.692;2022-10-16T09:01:47;19.00;99.90
25718;DHT22;13574;52.040;5.692;2022-10-16T09:07:37;19.10;99.90
25718;DHT22;13574;52.040;5.692;2022-10-16T09:20:42;19.20;99.90
25718;DHT22;13574;52.040;5.692;2022-10-16T09:23:17;19.40;99.90
25718;DHT22;13574;52.040;5.692;2022-10-16T09:25:45;19.60;99.90
25718;DHT22;13574;52.040;5.692;2022-10-16T09:28:13;19.30;99.90
25718;DHT22;13574;52.040;5.692;2022-10-16T09:30:39;19.50;99.90
25718;DHT22;13574;52.040;5.692;2022-10-16T09:33:05;19.60;99.90
25718;DHT22;13574;52.040;5.692;2022-10-16T09:35:40;19.80;99.90
25718;DHT22;13574;52.040;5.692;2022-10-16T09:38:07;19.90;99.90
25718;DHT22;13574;52.040;5.692;2022-10-16T09:40:37;19.80;99.90
25718;DHT22;13574;52.040;5.692;2022-10-16T09:46:32;20.00;99.90
25718;DHT22;13574;52.040;5.692;2022-10-16T09:49:04;20.10;99.90
25718;DHT22;13574;52.040;5.692;2022-10-16T09:51:33;20.10;99.90
25718;DHT22;13574;52.040;5.692;2022-10-16T09:54:12;20.00;99.90
25718;DHT22;13574;52.040;5.692;2022-10-16T09:56:38;20.10;99.90
25718;DHT22;13574;52.040;5.692;2022-10-16T09:59:14;20.10;99.90
25718;DHT22;13574;52.040;5.692;2022-10-16T10:02:02;20.20;99.90
25718;DHT22;13574;52.040;5.692;2022-10-16T10:04:38;20.40;99.90
25718;DHT22;13574;52.040;5.692;2022-10-16T10:07:06;20.20;99.90
25718;DHT22;13574;52.040;5.692;2022-10-16T10:09:44;20.30;99.90
25718;DHT22;13574;52.040;5.692;2022-10-16T10:12:22;20.50;99.90
25718;DHT22;13574;52.040;5.692;2022-10-16T10:14:51;20.40;99.90
25718;DHT22;13574;52.040;5.692;2022-10-16T10:17:20;20.50;99.90
25718;DHT22;13574;52.040;5.692;2022-10-16T10:20:01;20.40;99.90
25718;DHT22;13574;52.040;5.692;2022-10-16T10:22:40;20.60;99.90
25718;DHT22;13574;52.040;5.692;2022-10-16T10:25:15;20.30;99.90
25718;DHT22;13574;52.040;5.692;2022-10-16T10:28:14;20.40;99.90
25718;DHT22;13574;52.040;5.692;2022-10-16T10:33:45;20.60;99.90
25718;DHT22;13574;52.040;5.692;2022-10-16T10:36:37;20.70;99.90
25718;DHT22;13574;52.040;5.692;2022-10-16T10:47:12;21.50;99.90
25718;DHT22;13574;52.040;5.692;2022-10-16T10:50:24;21.60;99.90
25718;DHT22;13574;52.040;5.692;2022-10-16T11:06:38;21.30;99.90
25718;DHT22;13574;52.040;5.692;2022-10-16T11:17:39;21.00;99.90
25718;DHT22;13574;52.040;5.692;2022-10-16T11:21:02;21.20;99.90
25718;DHT22;13574;52.040;5.692;2022-10-16T11:23:53;21.40;99.90
25718;DHT22;13574;52.040;5.692;2022-10-16T11:26:27;21.50;99.90
25718;DHT22;13574;52.040;5.692;2022-10-16T11:28:55;21.40;99.90
25718;DHT22;13574;52.040;5.692;2022-10-16T11:31:40;21.20;99.90
25718;DHT22;13574;52.040;5.692;2022-10-16T11:34:12;21.00;99.90
25718;DHT22;13574;52.040;5.692;2022-10-16T11:36:55;21.10;99.90
25718;DHT22;13574;52.040;5.692;2022-10-16T11:39:28;21.20;99.90
25718;DHT22;13574;52.040;5.692;2022-10-16T11:47:33;21.30;99.90
25718;DHT22;13574;52.040;5.692;2022-10-16T11:53:21;21.10;99.90
25718;DHT22;13574;52.040;5.692;2022-10-16T11:55:48;21.30;99.90
25718;DHT22;13574;52.040;5.692;2022-10-16T12:08:54;21.30;99.90
25718;DHT22;13574;52.040;5.692;2022-10-16T12:14:19;21.20;99.90
25718;DHT22;13574;52.040;5.692;2022-10-16T12:17:34;21.10;99.90
25718;DHT22;13574;52.040;5.692;2022-10-16T12:22:47;21.10;99.90
25718;DHT22;13574;52.040;5.692;2022-10-16T12:25:31;21.20;99.90
25718;DHT22;13574;52.040;5.692;2022-10-16T12:28:01;21.30;99.90
25718;DHT22;13574;52.040;5.692;2022-10-16T12:30:30;21.30;99.90
25718;DHT22;13574;52.040;5.692;2022-10-16T12:32:58;21.40;99.90
25718;DHT22;13574;52.040;5.692;2022-10-16T12:35:28;21.40;99.90
25718;DHT22;13574;52.040;5.692;2022-10-16T12:38:06;21.40;99.90
25718;DHT22;13574;52.040;5.692;2022-10-16T12:40:34;21.60;99.90
25718;DHT22;13574;52.040;5.692;2022-10-16T12:45:45;21.40;99.90
25718;DHT22;13574;52.040;5.692;2022-10-16T12:48:20;21.30;99.90
25718;DHT22;13574;52.040;5.692;2022-10-16T12:50:47;21.20;99.90
25718;DHT22;13574;52.040;5.692;2022-10-16T12:53:21;21.20;99.90
25718;DHT22;13574;52.040;5.692;2022-10-16T12:56:03;21.30;99.90
25718;DHT22;13574;52.040;5.692;2022-10-16T13:01:56;21.40;99.90
25718;DHT22;13574;52.040;5.692;2022-10-16T13:07:34;21.30;99.90
25718;DHT22;13574;52.040;5.692;2022-10-16T13:10:25;21.20;99.90
25718;DHT22;13574;52.040;5.692;2022-10-16T13:15:42;21.40;99.90
25718;DHT22;13574;52.040;5.692;2022-10-16T13:18:25;21.60;99.90
25718;DHT22;13574;52.040;5.692;2022-10-16T13:23:36;21.30;99.90
25718;DHT22;13574;52.040;5.692;2022-10-16T13:28:41;21.50;99.90
25718;DHT22;13574;52.040;5.692;2022-10-16T13:31:22;21.50;99.90
25718;DHT22;13574;52.040;5.692;2022-10-16T13:33:55;21.40;99.90
25718;DHT22;13574;52.040;5.692;2022-10-16T13:36:27;21.40;99.90
25718;DHT22;13574;52.040;5.692;2022-10-16T13:41:43;21.50;99.90
25718;DHT22;13574;52.040;5.692;2022-10-16T13:44:20;21.50;99.90
25718;DHT22;13574;52.040;5.692;2022-10-16T13:46:46;21.60;99.90
25718;DHT22;13574;52.040;5.692;2022-10-16T13:49:15;21.50;99.90
25718;DHT22;13574;52.040;5.692;2022-10-16T13:51:41;21.50;99.90
25718;DHT22;13574;52.040;5.692;2022-10-16T13:54:10;21.50;99.90
25718;DHT22;13574;52.040;5.692;2022-10-16T13:56:39;21.50;99.90
25718;DHT22;13574;52.040;5.692;2022-10-16T13:59:22;21.60;99.90
25718;DHT22;13574;52.040;5.692;2022-10-16T14:01:48;21.70;99.90
25718;DHT22;13574;52.040;5.692;2022-10-16T14:04:15;21.70;99.90
25718;DHT22;13574;52.040;5.692;2022-10-16T14:06:45;21.60;99.90
25718;DHT22;13574;52.040;5.692;2022-10-16T14:11:49;21.70;99.90
25718;DHT22;13574;52.040;5.692;2022-10-16T14:14:17;21.70;99.90
25718;DHT22;13574;52.040;5.692;2022-10-16T14:16:43;21.80;99.90
25718;DHT22;13574;52.040;5.692;2022-10-16T14:21:41;21.90;99.90
25718;DHT22;13574;52.040;5.692;2022-10-16T14:24:21;21.90;99.90
25718;DHT22;13574;52.040;5.692;2022-10-16T14:26:48;21.90;99.90
25718;DHT22;13574;52.040;5.692;2022-10-16T14:29:18;21.80;99.90
25718;DHT22;13574;52.040;5.692;2022-10-16T14:31:54;21.80;99.90
25718;DHT22;13574;52.040;5.692;2022-10-16T14:34:29;21.80;99.90
25718;DHT22;13574;52.040;5.692;2022-10-16T14:37:05;21.90;99.90
25718;DHT22;13574;52.040;5.692;2022-10-16T14:39:33;21.90;99.90
25718;DHT22;13574;52.040;5.692;2022-10-16T14:41:59;21.80;99.90
25718;DHT22;13574;52.040;5.692;2022-10-16T14:44:34;21.80;99.90
25718;DHT22;13574;52.040;5.692;2022-10-16T14:47:13;21.80;99.90
25718;DHT22;13574;52.040;5.692;2022-10-16T14:49:39;21.80;99.90
25718;DHT22;13574;52.040;5.692;2022-10-16T14:52:12;21.80;99.90
25718;DHT22;13574;52.040;5.692;2022-10-16T14:54:38;21.70;99.90
25718;DHT22;13574;52.040;5.692;2022-10-16T14:57:04;21.60;99.90
25718;DHT22;13574;52.040;5.692;2022-10-16T14:59:41;21.60;99.90
25718;DHT22;13574;52.040;5.692;2022-10-16T15:02:28;21.50;99.90
25718;DHT22;13574;52.040;5.692;2022-10-16T15:04:54;21.50;99.90
25718;DHT22;13574;52.040;5.692;2022-10-16T15:07:20;21.50;99.90
25718;DHT22;13574;52.040;5.692;2022-10-16T15:09:46;21.50;99.90
25718;DHT22;13574;52.040;5.692;2022-10-16T15:12:12;21.60;99.90
25718;DHT22;13574;52.040;5.692;2022-10-16T15:14:38;21.60;99.90
25718;DHT22;13574;52.040;5.692;2022-10-16T15:17:08;21.60;99.90
25718;DHT22;13574;52.040;5.692;2022-10-16T15:19:34;21.60;99.90
25718;DHT22;13574;52.040;5.692;2022-10-16T15:22:00;21.60;99.90
25718;DHT22;13574;52.040;5.692;2022-10-16T15:24:25;21.60;99.90
25718;DHT22;13574;52.040;5.692;2022-10-16T15:26:51;21.60;99.90
25718;DHT22;13574;52.040;5.692;2022-10-16T15:29:17;21.60;99.90
25718;DHT22;13574;52.040;5.692;2022-10-16T15:31:45;21.60;99.90
25718;DHT22;13574;52.040;5.692;2022-10-16T15:34:13;21.60;99.90
25718;DHT22;13574;52.040;5.692;2022-10-16T15:36:39;21.60;99.90
25718;DHT22;13574;52.040;5.692;2022-10-16T15:39:12;21.50;99.90
25718;DHT22;13574;52.040;5.692;2022-10-16T15:41:38;21.50;99.90
25718;DHT22;13574;52.040;5.692;2022-10-16T15:44:03;21.40;99.90
25718;DHT22;13574;52.040;5.692;2022-10-16T15:46:29;21.40;99.90
25718;DHT22;13574;52.040;5.692;2022-10-16T15:48:57;21.30;99.90
25718;DHT22;13574;52.040;5.692;2022-10-16T15:51:24;21.30;99.90
25718;DHT22;13574;52.040;5.692;2022-10-16T15:53:50;21.20;99.90
25718;DHT22;13574;52.040;5.692;2022-10-16T15:56:17;21.20;99.90
25718;DHT22;13574;52.040;5.692;2022-10-16T15:58:43;21.20;99.90
25718;DHT22;13574;52.040;5.692;2022-10-16T16:01:09;21.10;99.90
25718;DHT22;13574;52.040;5.692;2022-10-16T16:03:36;21.00;99.90
25718;DHT22;13574;52.040;5.692;2022-10-16T16:06:09;21.00;99.90
25718;DHT22;13574;52.040;5.692;2022-10-16T16:08:42;20.90;99.90
25718;DHT22;13574;52.040;5.692;2022-10-16T16:11:17;20.90;99.90
25718;DHT22;13574;52.040;5.692;2022-10-16T16:13:43;20.80;99.90
25718;DHT22;13574;52.040;5.692;2022-10-16T16:16:11;20.80;99.90
25718;DHT22;13574;52.040;5.692;2022-10-16T16:18:37;20.70;99.90
25718;DHT22;13574;52.040;5.692;2022-10-16T16:21:04;20.70;99.90
25718;DHT22;13574;52.040;5.692;2022-10-16T16:23:33;20.60;99.90
25718;DHT22;13574;52.040;5.692;2022-10-16T16:28:52;20.50;99.90
25718;DHT22;13574;52.040;5.692;2022-10-16T16:31:18;20.50;99.90
25718;DHT22;13574;52.040;5.692;2022-10-16T16:33:44;20.50;99.90
25718;DHT22;13574;52.040;5.692;2022-10-16T16:36:10;20.50;99.90
25718;DHT22;13574;52.040;5.692;2022-10-16T16:38:35;20.50;99.90
25718;DHT22;13574;52.040;5.692;2022-10-16T16:41:19;20.40;99.90
25718;DHT22;13574;52.040;5.692;2022-10-16T16:43:45;20.40;99.90
25718;DHT22;13574;52.040;5.692;2022-10-16T16:46:13;20.30;99.90
25718;DHT22;13574;52.040;5.692;2022-10-16T16:48:40;20.30;99.90
25718;DHT22;13574;52.040;5.692;2022-10-16T16:51:12;20.30;99.90
25718;DHT22;13574;52.040;5.692;2022-10-16T16:53:41;20.20;99.90
25718;DHT22;13574;52.040;5.692;2022-10-16T16:56:07;20.20;99.90
25718;DHT22;13574;52.040;5.692;2022-10-16T16:58:33;20.20;99.90
25718;DHT22;13574;52.040;5.692;2022-10-16T17:01:00;20.20;99.90
25718;DHT22;13574;52.040;5.692;2022-10-16T17:03:28;20.00;99.90
25718;DHT22;13574;52.040;5.692;2022-10-16T17:06:01;20.00;99.90
25718;DHT22;13574;52.040;5.692;2022-10-16T17:08:27;20.00;99.90
25718;DHT22;13574;52.040;5.692;2022-10-16T17:10:54;20.00;99.90
25718;DHT22;13574;52.040;5.692;2022-10-16T17:13:25;19.90;99.90
25718;DHT22;13574;52.040;5.692;2022-10-16T17:15:51;19.90;99.90
25718;DHT22;13574;52.040;5.692;2022-10-16T17:18:19;19.90;99.90
25718;DHT22;13574;52.040;5.692;2022-10-16T17:20:46;19.90;99.90
25718;DHT22;13574;52.040;5.692;2022-10-16T17:23:12;19.80;99.90
25718;DHT22;13574;52.040;5.692;2022-10-16T17:25:38;19.80;99.90
25718;DHT22;13574;52.040;5.692;2022-10-16T17:28:05;19.70;99.90
25718;DHT22;13574;52.040;5.692;2022-10-16T17:30:31;19.70;99.90
25718;DHT22;13574;52.040;5.692;2022-10-16T17:32:58;19.60;99.90
25718;DHT22;13574;52.040;5.692;2022-10-16T17:35:24;19.60;99.90
25718;DHT22;13574;52.040;5.692;2022-10-16T17:37:53;19.70;99.90
25718;DHT22;13574;52.040;5.692;2022-10-16T17:40:19;19.70;99.90
25718;DHT22;13574;52.040;5.692;2022-10-16T17:42:45;19.70;99.90
25718;DHT22;13574;52.040;5.692;2022-10-16T17:45:13;19.50;99.90
25718;DHT22;13574;52.040;5.692;2022-10-16T17:47:39;19.30;99.90
25718;DHT22;13574;52.040;5.692;2022-10-16T17:50:07;19.40;99.90
25718;DHT22;13574;52.040;5.692;2022-10-16T17:52:33;19.30;99.90
25718;DHT22;13574;52.040;5.692;2022-10-16T17:54:58;19.20;99.90
25718;DHT22;13574;52.040;5.692;2022-10-16T17:57:24;19.10;99.90
25718;DHT22;13574;52.040;5.692;2022-10-16T17:59:50;19.30;99.90